createdAt,value
2022-08-19T00:02:36.891Z,20.59
2022-08-19T00:05:38.635Z,20.61
2022-08-19T00:08:40.683Z,20.68
2022-08-19T00:11:46.942Z,20.84
2022-08-19T00:14:48.757Z,20.92
2022-08-19T00:17:50.628Z,20.92
2022-08-19T00:20:52.706Z,20.89
2022-08-19T00:23:59.285Z,20.83
2022-08-19T00:27:26.312Z,20.73
2022-08-19T00:30:24.391Z,20.65
2022-08-19T00:33:26.851Z,20.57
2022-08-19T00:36:33.993Z,20.49
2022-08-19T00:39:35.825Z,20.43
2022-08-19T00:42:38.569Z,20.38
2022-08-19T00:45:44.676Z,20.42
2022-08-19T00:48:46.394Z,20.44
2022-08-19T00:51:52.694Z,20.40
2022-08-19T00:54:54.568Z,20.36
2022-08-19T00:58:01.500Z,20.34
2022-08-19T01:01:05.170Z,20.29
2022-08-19T01:04:07.235Z,20.20
2022-08-19T01:07:09.227Z,20.14
2022-08-19T01:10:20.083Z,20.08
2022-08-19T01:13:26.732Z,19.99
2022-08-19T01:16:30.875Z,19.96
2022-08-19T01:19:43.656Z,19.91
2022-08-19T01:22:50.031Z,19.87
2022-08-19T01:25:54.716Z,19.84
2022-08-19T01:28:59.647Z,19.81
2022-08-19T01:32:03.134Z,19.82
2022-08-19T01:35:05.877Z,19.83
2022-08-19T01:38:11.048Z,19.87
2022-08-19T01:41:14.229Z,19.90
2022-08-19T01:44:19.327Z,19.90
2022-08-19T01:47:21.155Z,19.93
2022-08-19T01:50:23.244Z,19.95
2022-08-19T01:53:26.716Z,20.00
2022-08-19T01:56:35.746Z,19.98
2022-08-19T01:59:37.764Z,19.96
2022-08-19T02:02:40.720Z,19.89
2022-08-19T02:05:46.721Z,19.88
2022-08-19T02:08:48.846Z,19.84
2022-08-19T02:11:52.975Z,19.84
2022-08-19T02:14:54.694Z,19.75
2022-08-19T02:17:56.430Z,19.73
2022-08-19T02:20:58.146Z,19.63
2022-08-19T02:24:00.112Z,19.58
2022-08-19T02:27:01.906Z,19.58
2022-08-19T02:30:06.318Z,19.54
2022-08-19T02:33:08.099Z,19.51
2022-08-19T02:36:11.097Z,19.51
2022-08-19T02:39:13.118Z,19.51
2022-08-19T02:42:14.772Z,19.52
2022-08-19T02:45:16.650Z,19.48
2022-08-19T02:48:23.386Z,19.39
2022-08-19T02:51:28.573Z,19.30
2022-08-19T02:54:30.308Z,19.26
2022-08-19T02:57:32.827Z,19.23
2022-08-19T03:00:34.620Z,19.16
2022-08-19T03:03:43.804Z,19.07
2022-08-19T03:06:47.688Z,19.02
2022-08-19T03:09:49.415Z,19.01
2022-08-19T03:12:51.245Z,19.00
2022-08-19T03:15:53.126Z,18.99
2022-08-19T03:18:57.340Z,18.95
2022-08-19T03:21:59.592Z,18.88
2022-08-19T03:25:01.312Z,18.67
2022-08-19T03:28:03.241Z,18.52
2022-08-19T03:31:42.110Z,18.58
2022-08-19T03:34:35.566Z,18.53
2022-08-19T03:37:37.272Z,18.48
2022-08-19T03:40:43.944Z,18.45
2022-08-19T03:43:47.691Z,18.46
2022-08-19T03:46:56.134Z,18.43
2022-08-19T03:49:57.964Z,18.40
2022-08-19T03:53:00.171Z,18.36
2022-08-19T03:56:02.306Z,18.38
2022-08-19T03:59:06.416Z,18.38
2022-08-19T04:02:11.844Z,18.32
2022-08-19T04:05:15.052Z,18.41
2022-08-19T04:08:19.950Z,18.49
2022-08-19T04:11:24.927Z,18.60
2022-08-19T04:14:45.846Z,18.70
2022-08-19T04:17:47.641Z,18.78
2022-08-19T04:20:49.737Z,18.90
2022-08-19T04:23:52.170Z,18.98
2022-08-19T04:26:53.961Z,19.07
2022-08-19T04:29:56.125Z,19.16
2022-08-19T04:32:57.857Z,19.21
2022-08-19T04:35:59.740Z,19.33
2022-08-19T04:39:05.926Z,19.32
2022-08-19T04:42:30.863Z,19.46
2022-08-19T04:45:39.623Z,19.64
2022-08-19T04:48:49.432Z,19.75
2022-08-19T04:51:55.115Z,19.70
2022-08-19T04:54:56.850Z,19.63
2022-08-19T04:57:58.530Z,19.73
2022-08-19T05:01:02.004Z,19.54
2022-08-19T05:04:07.144Z,19.53
2022-08-19T05:07:09.465Z,19.59
2022-08-19T05:10:11.281Z,19.58
2022-08-19T05:13:13.023Z,19.53
2022-08-19T05:16:16.949Z,19.59
2022-08-19T05:19:37.158Z,19.64
2022-08-19T05:22:38.980Z,19.64
2022-08-19T05:25:41.376Z,19.57
2022-08-19T05:28:43.412Z,19.56
2022-08-19T05:31:46.001Z,19.63
2022-08-19T05:34:47.751Z,19.77
2022-08-19T05:37:49.499Z,19.90
2022-08-19T05:40:58.695Z,19.94
2022-08-19T05:44:04.119Z,20.00
2022-08-19T05:47:09.365Z,20.01
2022-08-19T05:50:11.509Z,20.04
2022-08-19T05:53:15.546Z,20.21
2022-08-19T05:56:18.850Z,20.45
2022-08-19T05:59:22.415Z,20.38
2022-08-19T06:02:31.710Z,20.47
2022-08-19T06:05:33.742Z,20.81
2022-08-19T06:08:51.671Z,20.86
2022-08-19T06:11:56.318Z,21.00
2022-08-19T06:15:01.002Z,21.13
2022-08-19T06:18:04.518Z,21.10
2022-08-19T06:21:06.301Z,21.29
2022-08-19T06:24:10.812Z,21.52
2022-08-19T06:27:12.614Z,21.28
2022-08-19T06:30:15.118Z,21.36
2022-08-19T06:33:16.957Z,21.71
2022-08-19T06:36:32.210Z,21.63
2022-08-19T06:39:39.621Z,21.71
2022-08-19T06:42:51.786Z,21.90
2022-08-19T06:45:56.958Z,21.99
2022-08-19T06:49:01.455Z,22.19
2022-08-19T06:52:04.385Z,22.68
2022-08-19T06:55:07.153Z,22.99
2022-08-19T06:58:10.208Z,23.18
2022-08-19T07:01:11.975Z,23.19
2022-08-19T07:04:16.611Z,23.20
2022-08-19T07:07:21.123Z,23.47
2022-08-19T07:10:23.362Z,23.40
2022-08-19T07:13:27.787Z,23.43
2022-08-19T07:16:29.766Z,23.80
2022-08-19T07:19:32.395Z,24.10
2022-08-19T07:22:35.794Z,24.51
2022-08-19T07:25:38.848Z,24.75
2022-08-19T07:28:46.134Z,24.75
2022-08-19T07:31:59.997Z,24.99
2022-08-19T07:35:04.303Z,25.28
2022-08-19T07:38:06.090Z,25.26
2022-08-19T07:41:10.215Z,25.50
2022-08-19T07:44:13.471Z,25.75
2022-08-19T07:47:50.286Z,25.44
2022-08-19T07:50:38.703Z,25.45
2022-08-19T07:53:40.735Z,25.55
2022-08-19T07:56:42.638Z,25.41
2022-08-19T07:59:44.430Z,25.51
2022-08-19T08:02:46.171Z,25.79
2022-08-19T08:06:24.464Z,25.97
2022-08-19T08:09:39.386Z,25.99
2022-08-19T08:12:42.423Z,26.15
2022-08-19T08:15:45.591Z,26.63
2022-08-19T08:18:50.695Z,27.13
2022-08-19T08:21:58.345Z,27.14
2022-08-19T08:25:05.315Z,27.38
2022-08-19T08:28:11.439Z,27.62
2022-08-19T08:31:20.207Z,27.67
2022-08-19T08:34:22.436Z,28.22
2022-08-19T08:37:24.276Z,27.80
2022-08-19T08:40:55.708Z,27.87
2022-08-19T08:43:59.425Z,28.15
2022-08-19T08:47:08.880Z,28.00
2022-08-19T08:50:20.340Z,28.26
2022-08-19T08:53:29.712Z,28.85
2022-08-19T08:56:34.140Z,29.12
2022-08-19T08:59:40.050Z,29.32
2022-08-19T09:02:41.775Z,29.71
2022-08-19T09:06:11.999Z,29.52
2022-08-19T09:09:24.622Z,29.66
2022-08-19T09:12:56.135Z,29.36
2022-08-19T09:16:07.566Z,29.28
2022-08-19T09:19:11.613Z,29.49
2022-08-19T09:22:13.799Z,30.00
2022-08-19T09:25:29.545Z,29.56
2022-08-19T09:28:32.461Z,29.53
2022-08-19T09:31:34.233Z,29.97
2022-08-19T09:34:37.889Z,29.65
2022-08-19T09:37:40.454Z,29.04
2022-08-19T09:40:42.276Z,29.70
2022-08-19T09:43:47.936Z,30.39
2022-08-19T09:46:50.408Z,29.94
2022-08-19T09:49:52.227Z,29.47
2022-08-19T09:52:57.189Z,29.84
2022-08-19T09:55:59.514Z,30.19
2022-08-19T09:59:03.333Z,30.35
2022-08-19T10:02:11.006Z,30.16
2022-08-19T10:05:38.857Z,29.84
2022-08-19T10:08:50.185Z,29.59
2022-08-19T10:11:54.809Z,28.92
2022-08-19T10:14:57.227Z,28.59
2022-08-19T10:18:00.277Z,27.84
2022-08-19T10:21:23.934Z,27.98
2022-08-19T10:24:28.932Z,26.90
2022-08-19T10:27:32.498Z,26.75
2022-08-19T10:30:36.270Z,26.89
2022-08-19T10:33:53.624Z,26.66
2022-08-19T10:37:01.285Z,27.06
2022-08-19T10:40:08.540Z,26.91
2022-08-19T10:43:10.698Z,26.43
2022-08-19T10:46:16.670Z,26.18
2022-08-19T10:49:20.349Z,26.07
2022-08-19T10:52:39.050Z,26.03
2022-08-19T10:55:59.396Z,26.03
2022-08-19T10:59:04.037Z,25.91
2022-08-19T11:02:12.963Z,26.23
2022-08-19T11:05:16.308Z,27.04
2022-08-19T11:08:23.206Z,27.54
2022-08-19T11:11:25.923Z,27.97
2022-08-19T11:14:28.276Z,28.20
2022-08-19T11:17:33.997Z,28.45
2022-08-19T11:20:35.706Z,27.94
2022-08-19T11:23:37.967Z,27.90
2022-08-19T11:26:42.332Z,28.76
2022-08-19T11:29:44.077Z,29.64
2022-08-19T11:32:49.374Z,29.84
2022-08-19T11:35:51.523Z,29.75
2022-08-19T11:38:54.061Z,29.29
2022-08-19T11:41:56.836Z,28.99
2022-08-19T11:44:58.585Z,28.56
2022-08-19T11:48:00.411Z,28.97
2022-08-19T11:51:10.383Z,28.59
2022-08-19T11:54:14.319Z,28.54
2022-08-19T11:57:17.926Z,28.78
2022-08-19T12:00:19.960Z,29.38
2022-08-19T12:03:22.178Z,29.37
2022-08-19T12:06:29.702Z,29.28
2022-08-19T12:09:32.824Z,29.62
2022-08-19T12:12:34.652Z,29.06
2022-08-19T12:15:38.634Z,28.26
2022-08-19T12:18:44.357Z,27.99
2022-08-19T12:21:46.177Z,27.30
2022-08-19T12:24:49.023Z,26.92
2022-08-19T12:27:57.243Z,26.65
2022-08-19T12:30:59.751Z,26.26
2022-08-19T12:34:02.470Z,26.05
2022-08-19T12:37:06.428Z,25.51
2022-08-19T12:40:08.880Z,25.21
2022-08-19T12:43:12.594Z,25.21
2022-08-19T12:46:15.197Z,25.12
2022-08-19T12:49:52.256Z,24.95
2022-08-19T12:52:43.394Z,24.93
2022-08-19T12:55:45.272Z,24.66
2022-08-19T12:58:48.678Z,24.88
2022-08-19T13:01:50.836Z,24.46
2022-08-19T13:04:52.564Z,24.48
2022-08-19T13:07:58.301Z,24.00
2022-08-19T13:11:12.814Z,23.86
2022-08-19T13:14:14.655Z,23.60
2022-08-19T13:17:16.697Z,23.68
2022-08-19T13:20:20.539Z,23.68
2022-08-19T13:23:22.678Z,23.60
2022-08-19T13:26:24.759Z,24.01
2022-08-19T13:29:45.032Z,24.53
2022-08-19T13:33:05.355Z,24.42
2022-08-19T13:36:08.911Z,24.70
2022-08-19T13:39:11.217Z,24.80
2022-08-19T13:42:14.947Z,24.43
2022-08-19T13:45:20.622Z,24.64
2022-08-19T13:48:23.265Z,24.84
2022-08-19T13:51:25.175Z,25.09
2022-08-19T13:54:28.009Z,25.39
2022-08-19T13:57:29.771Z,25.90
2022-08-19T14:00:35.731Z,25.55
2022-08-19T14:03:38.923Z,25.98
2022-08-19T14:06:40.673Z,26.14
2022-08-19T14:09:42.513Z,26.29
2022-08-19T14:12:45.342Z,26.51
2022-08-19T14:15:48.425Z,26.36
2022-08-19T14:18:50.311Z,26.58
2022-08-19T14:21:52.079Z,26.17
2022-08-19T14:24:53.821Z,25.99
2022-08-19T14:27:56.750Z,26.23
2022-08-19T14:30:58.655Z,26.31
2022-08-19T14:34:00.599Z,26.31
2022-08-19T14:37:02.473Z,26.28
2022-08-19T14:40:05.439Z,26.13
2022-08-19T14:43:07.271Z,26.38
2022-08-19T14:46:11.223Z,26.68
2022-08-19T14:49:13.318Z,27.01
2022-08-19T14:52:15.266Z,26.46
2022-08-19T14:55:19.026Z,26.30
2022-08-19T14:58:29.805Z,26.29
2022-08-19T15:01:32.231Z,26.26
2022-08-19T15:04:34.257Z,25.54
2022-08-19T15:07:36.105Z,25.53
2022-08-19T15:10:40.045Z,25.40
2022-08-19T15:13:42.726Z,25.43
2022-08-19T15:16:44.471Z,25.20
2022-08-19T15:19:46.749Z,25.32
2022-08-19T15:22:48.571Z,25.13
2022-08-19T15:25:56.525Z,25.18
2022-08-19T15:29:00.313Z,25.56
2022-08-19T15:32:02.048Z,25.51
2022-08-19T15:35:06.065Z,25.53
2022-08-19T15:38:08.738Z,25.55
2022-08-19T15:41:25.566Z,25.82
2022-08-19T15:44:27.563Z,25.94
2022-08-19T15:47:34.421Z,25.96
2022-08-19T15:50:37.753Z,26.24
2022-08-19T15:53:40.881Z,26.48
2022-08-19T15:57:01.190Z,25.95
2022-08-19T16:00:22.400Z,26.23
2022-08-19T16:03:47.564Z,25.86
2022-08-19T16:06:52.909Z,25.87
2022-08-19T16:09:54.534Z,25.84
2022-08-19T16:12:58.148Z,26.31
2022-08-19T16:16:00.000Z,26.51
2022-08-19T16:19:10.314Z,26.43
2022-08-19T16:22:14.026Z,25.99
2022-08-19T16:25:16.100Z,25.96
2022-08-19T16:28:17.831Z,26.01
2022-08-19T16:31:19.545Z,25.70
2022-08-19T16:34:21.974Z,25.57
2022-08-19T16:37:23.796Z,25.48
2022-08-19T16:40:25.780Z,25.69
2022-08-19T16:43:29.303Z,25.79
2022-08-19T16:46:31.132Z,25.61
2022-08-19T16:49:54.540Z,25.26
2022-08-19T16:52:58.751Z,25.16
2022-08-19T16:56:01.452Z,24.90
2022-08-19T16:59:03.685Z,24.80
2022-08-19T17:02:05.703Z,24.48
2022-08-19T17:05:10.780Z,24.39
2022-08-19T17:08:13.888Z,24.28
2022-08-19T17:11:18.514Z,24.15
2022-08-19T17:14:21.969Z,24.15
2022-08-19T17:17:27.041Z,24.10
2022-08-19T17:20:31.594Z,23.81
2022-08-19T17:23:42.646Z,23.55
2022-08-19T17:26:45.947Z,23.48
2022-08-19T17:29:48.157Z,23.37
2022-08-19T17:32:50.427Z,23.18
2022-08-19T17:35:52.187Z,23.06
2022-08-19T17:38:58.046Z,23.02
2022-08-19T17:42:02.577Z,22.94
2022-08-19T17:45:06.174Z,22.89
2022-08-19T17:48:10.514Z,22.74
2022-08-19T17:51:35.707Z,22.62
2022-08-19T17:54:37.454Z,22.44
2022-08-19T17:57:41.216Z,22.37
2022-08-19T18:00:53.695Z,22.30
2022-08-19T18:03:55.900Z,22.24
2022-08-19T18:06:58.412Z,22.21
2022-08-19T18:10:01.811Z,22.06
2022-08-19T18:13:17.630Z,22.09
2022-08-19T18:16:22.073Z,22.10
2022-08-19T18:19:25.546Z,22.16
2022-08-19T18:22:36.989Z,22.24
2022-08-19T18:25:41.993Z,22.14
2022-08-19T18:28:49.712Z,22.22
2022-08-19T18:31:51.813Z,22.24
2022-08-19T18:34:54.885Z,22.21
2022-08-19T18:37:59.130Z,22.18
2022-08-19T18:41:20.108Z,22.14
2022-08-19T18:44:40.523Z,21.90
2022-08-19T18:48:00.603Z,21.74
2022-08-19T18:51:02.508Z,21.62
2022-08-19T18:54:04.509Z,21.39
2022-08-19T18:57:07.272Z,21.35
2022-08-19T19:00:10.454Z,21.26
2022-08-19T19:03:12.188Z,21.14
2022-08-19T19:06:18.993Z,21.04
2022-08-19T19:09:24.650Z,20.78
2022-08-19T19:12:29.863Z,20.50
2022-08-19T19:15:32.876Z,20.44
2022-08-19T19:18:35.045Z,20.40
2022-08-19T19:21:36.772Z,20.34
2022-08-19T19:24:40.419Z,20.28
2022-08-19T19:27:42.125Z,20.25
2022-08-19T19:30:43.905Z,20.18
2022-08-19T19:33:46.478Z,20.19
2022-08-19T19:36:49.985Z,20.24
2022-08-19T19:39:52.484Z,20.25
2022-08-19T19:42:55.664Z,20.17
2022-08-19T19:45:57.660Z,20.25
2022-08-19T19:49:00.382Z,20.04
2022-08-19T19:52:02.265Z,19.90
2022-08-19T19:55:04.398Z,19.94
2022-08-19T19:58:07.018Z,20.02
2022-08-19T20:01:12.613Z,19.93
2022-08-19T20:04:19.289Z,19.64
2022-08-19T20:07:40.954Z,19.43
2022-08-19T20:10:43.772Z,19.43
2022-08-19T20:13:45.541Z,19.44
2022-08-19T20:16:49.180Z,19.44
2022-08-19T20:19:51.014Z,19.34
2022-08-19T20:22:53.854Z,19.32
2022-08-19T20:25:55.831Z,19.45
2022-08-19T20:29:13.254Z,19.50
2022-08-19T20:32:19.360Z,19.54
2022-08-19T20:35:21.720Z,19.55
2022-08-19T20:38:23.429Z,19.52
2022-08-19T20:41:25.308Z,19.49
2022-08-19T20:44:27.075Z,19.55
2022-08-19T20:47:31.262Z,19.47
2022-08-19T20:50:35.074Z,19.45
2022-08-19T20:53:38.570Z,19.36
2022-08-19T20:56:40.369Z,19.26
2022-08-19T20:59:42.097Z,19.23
2022-08-19T21:02:43.974Z,19.19
2022-08-19T21:05:46.473Z,19.13
2022-08-19T21:08:48.894Z,19.10
2022-08-19T21:11:51.060Z,19.05
2022-08-19T21:14:52.923Z,19.02
2022-08-19T21:17:54.803Z,18.99
2022-08-19T21:20:56.701Z,18.87
2022-08-19T21:23:58.522Z,18.73
2022-08-19T21:27:00.566Z,18.62
2022-08-19T21:30:03.903Z,18.63
2022-08-19T21:33:06.394Z,18.47
2022-08-19T21:36:09.511Z,18.44
2022-08-19T21:39:11.386Z,18.34
2022-08-19T21:42:14.360Z,18.37
2022-08-19T21:45:19.709Z,18.24
2022-08-19T21:48:21.433Z,18.20
2022-08-19T21:51:23.225Z,18.14
2022-08-19T21:54:25.005Z,18.17
2022-08-19T21:57:26.730Z,18.19
2022-08-19T22:00:32.209Z,18.06
2022-08-19T22:03:36.406Z,18.04
2022-08-19T22:06:38.085Z,17.99
2022-08-19T22:09:44.571Z,17.97
2022-08-19T22:12:51.271Z,17.90
2022-08-19T22:15:55.167Z,17.84
2022-08-19T22:18:57.397Z,17.79
2022-08-19T22:21:59.140Z,17.70
2022-08-19T22:25:08.867Z,17.68
2022-08-19T22:28:12.857Z,17.69
2022-08-19T22:31:16.103Z,17.72
2022-08-19T22:34:18.466Z,17.77
2022-08-19T22:37:20.353Z,17.72
2022-08-19T22:40:22.086Z,17.77
2022-08-19T22:43:28.536Z,17.81
2022-08-19T22:46:33.637Z,17.81
2022-08-19T22:49:35.544Z,17.80
2022-08-19T22:52:37.313Z,17.70
2022-08-19T22:55:39.333Z,17.70
2022-08-19T22:58:42.245Z,17.68
2022-08-19T23:01:44.222Z,17.51
2022-08-19T23:04:46.005Z,17.51
2022-08-19T23:07:52.454Z,17.52
2022-08-19T23:10:54.344Z,17.55
2022-08-19T23:13:56.048Z,17.41
2022-08-19T23:16:59.233Z,17.30
2022-08-19T23:20:01.417Z,17.33
2022-08-19T23:23:06.268Z,17.42
2022-08-19T23:26:10.783Z,17.48
2022-08-19T23:29:32.203Z,17.51
2022-08-19T23:32:35.251Z,17.47
2022-08-19T23:35:38.374Z,17.43
2022-08-19T23:38:42.994Z,17.43
2022-08-19T23:41:44.721Z,17.38
2022-08-19T23:44:51.277Z,17.30
2022-08-19T23:47:54.542Z,17.30
2022-08-19T23:50:57.203Z,17.24
2022-08-19T23:53:58.962Z,17.21
2022-08-19T23:57:00.677Z,17.15
